createdAt,value
2022-10-22T00:01:51.988Z,14.25
2022-10-22T00:04:21.861Z,14.22
2022-10-22T00:06:54.337Z,14.24
2022-10-22T00:09:21.079Z,14.23
2022-10-22T00:11:47.483Z,14.20
2022-10-22T00:14:13.944Z,14.23
2022-10-22T00:16:40.286Z,14.23
2022-10-22T00:19:06.832Z,14.24
2022-10-22T00:21:33.140Z,14.24
2022-10-22T00:23:59.424Z,14.27
2022-10-22T00:26:25.817Z,14.27
2022-10-22T00:28:53.285Z,14.25
2022-10-22T00:31:20.144Z,14.22
2022-10-22T00:33:47.949Z,14.23
2022-10-22T00:36:15.653Z,14.18
2022-10-22T00:38:42.278Z,14.20
2022-10-22T00:41:08.728Z,14.18
2022-10-22T00:43:53.688Z,14.14
2022-10-22T00:46:19.967Z,14.17
2022-10-22T00:48:46.537Z,14.16
2022-10-22T00:51:13.699Z,14.15
2022-10-22T00:53:45.491Z,14.14
2022-10-22T00:56:12.289Z,14.12
2022-10-22T00:58:46.201Z,14.11
2022-10-22T01:01:18.244Z,14.11
2022-10-22T01:03:44.704Z,14.09
2022-10-22T01:06:14.732Z,14.08
2022-10-22T01:08:55.916Z,14.05
2022-10-22T01:11:48.814Z,14.12
2022-10-22T01:14:18.067Z,14.05
2022-10-22T01:17:04.519Z,14.04
2022-10-22T01:19:54.023Z,14.00
2022-10-22T01:22:31.374Z,14.04
2022-10-22T01:25:35.722Z,14.02
2022-10-22T01:28:28.031Z,14.03
2022-10-22T01:30:58.292Z,13.98
2022-10-22T01:33:26.493Z,13.99
2022-10-22T01:35:53.662Z,13.95
2022-10-22T01:38:23.178Z,13.97
2022-10-22T01:40:51.176Z,13.98
2022-10-22T01:43:17.544Z,13.97
2022-10-22T01:45:48.352Z,13.95
2022-10-22T01:48:28.487Z,13.96
2022-10-22T01:51:22.144Z,13.97
2022-10-22T01:54:00.600Z,13.94
2022-10-22T01:56:48.857Z,13.96
2022-10-22T01:59:34.450Z,13.94
2022-10-22T02:02:22.556Z,13.92
2022-10-22T02:04:57.136Z,13.93
2022-10-22T02:07:28.399Z,13.92
2022-10-22T02:09:56.664Z,13.91
2022-10-22T02:12:25.152Z,13.92
2022-10-22T02:14:52.953Z,13.89
2022-10-22T02:17:21.931Z,13.90
2022-10-22T02:19:54.241Z,13.91
2022-10-22T02:22:20.668Z,13.90
2022-10-22T02:24:49.090Z,13.96
2022-10-22T02:27:25.843Z,13.92
2022-10-22T02:30:09.924Z,13.88
2022-10-22T02:32:44.963Z,13.87
2022-10-22T02:35:14.952Z,13.87
2022-10-22T02:37:42.274Z,13.88
2022-10-22T02:40:09.782Z,13.82
2022-10-22T02:42:39.265Z,13.81
2022-10-22T02:45:07.099Z,13.72
2022-10-22T02:47:33.425Z,13.76
2022-10-22T02:49:59.784Z,13.73
2022-10-22T02:52:26.081Z,13.69
2022-10-22T02:54:52.369Z,13.67
2022-10-22T02:57:18.689Z,13.70
2022-10-22T02:59:44.963Z,13.72
2022-10-22T03:02:11.251Z,13.66
2022-10-22T03:04:37.564Z,13.70
2022-10-22T03:07:03.843Z,13.69
2022-10-22T03:09:30.377Z,13.66
2022-10-22T03:11:56.700Z,13.62
2022-10-22T03:14:22.988Z,13.62
2022-10-22T03:16:49.344Z,13.60
2022-10-22T03:19:15.656Z,13.57
2022-10-22T03:21:45.696Z,13.43
2022-10-22T03:24:16.308Z,13.49
2022-10-22T03:26:43.544Z,13.49
2022-10-22T03:29:12.785Z,13.50
2022-10-22T03:31:39.145Z,13.49
2022-10-22T03:34:05.539Z,13.51
2022-10-22T03:36:33.205Z,13.48
2022-10-22T03:39:01.242Z,13.47
2022-10-22T03:41:28.431Z,13.54
2022-10-22T03:43:55.322Z,13.53
2022-10-22T03:46:21.606Z,13.51
2022-10-22T03:48:47.898Z,13.53
2022-10-22T03:51:14.175Z,13.54
2022-10-22T03:53:40.476Z,13.51
2022-10-22T03:56:10.735Z,13.53
2022-10-22T03:58:38.616Z,13.48
2022-10-22T04:01:11.045Z,13.47
2022-10-22T04:03:38.140Z,13.45
2022-10-22T04:06:12.938Z,13.41
2022-10-22T04:08:40.835Z,13.45
2022-10-22T04:11:07.737Z,13.45
2022-10-22T04:13:34.466Z,13.45
2022-10-22T04:16:09.166Z,13.43
2022-10-22T04:18:35.775Z,13.44
2022-10-22T04:21:02.543Z,13.43
2022-10-22T04:23:28.852Z,13.44
2022-10-22T04:26:03.619Z,13.45
2022-10-22T04:28:30.107Z,13.46
2022-10-22T04:30:56.713Z,13.48
2022-10-22T04:33:23.294Z,13.47
2022-10-22T04:35:49.658Z,13.45
2022-10-22T04:38:16.183Z,13.43
2022-10-22T04:40:42.775Z,13.45
2022-10-22T04:43:09.174Z,13.45
2022-10-22T04:45:36.267Z,13.46
2022-10-22T04:48:02.888Z,13.45
2022-10-22T04:50:29.792Z,13.50
2022-10-22T04:52:56.115Z,13.47
2022-10-22T04:55:22.435Z,13.48
2022-10-22T04:57:48.880Z,13.49
2022-10-22T05:00:16.583Z,13.48
2022-10-22T05:02:44.637Z,13.50
2022-10-22T05:05:11.842Z,13.52
2022-10-22T05:07:38.339Z,13.49
2022-10-22T05:10:05.178Z,13.52
2022-10-22T05:12:31.507Z,13.53
2022-10-22T05:14:57.790Z,13.50
2022-10-22T05:17:24.149Z,13.51
2022-10-22T05:19:50.455Z,13.53
2022-10-22T05:22:16.751Z,13.54
2022-10-22T05:24:43.136Z,13.53
2022-10-22T05:27:09.549Z,13.53
2022-10-22T05:29:35.964Z,13.47
2022-10-22T05:32:02.278Z,13.47
2022-10-22T05:34:28.745Z,13.43
2022-10-22T05:36:55.045Z,13.45
2022-10-22T05:39:21.329Z,13.45
2022-10-22T05:41:47.608Z,13.42
2022-10-22T05:44:13.959Z,13.39
2022-10-22T05:46:41.031Z,13.35
2022-10-22T05:49:07.532Z,13.38
2022-10-22T05:51:36.483Z,13.39
2022-10-22T05:54:05.904Z,13.36
2022-10-22T05:56:32.290Z,13.36
2022-10-22T05:58:59.415Z,13.38
2022-10-22T06:01:28.512Z,13.37
2022-10-22T06:03:57.027Z,13.43
2022-10-22T06:06:47.252Z,13.43
2022-10-22T06:09:38.768Z,13.45
2022-10-22T06:12:08.991Z,13.44
2022-10-22T06:14:35.288Z,13.43
2022-10-22T06:17:01.627Z,13.40
2022-10-22T06:19:29.687Z,13.38
2022-10-22T06:21:55.944Z,13.34
2022-10-22T06:24:22.348Z,13.36
2022-10-22T06:26:52.417Z,13.39
2022-10-22T06:29:18.825Z,13.36
2022-10-22T06:31:45.250Z,13.36
2022-10-22T06:34:13.651Z,13.41
2022-10-22T06:36:43.201Z,13.34
2022-10-22T06:39:12.485Z,13.27
2022-10-22T06:41:39.088Z,13.29
2022-10-22T06:44:05.403Z,13.26
2022-10-22T06:46:32.106Z,13.22
2022-10-22T06:49:00.983Z,13.19
2022-10-22T06:51:27.805Z,13.29
2022-10-22T06:53:55.535Z,13.31
2022-10-22T06:56:24.328Z,13.37
2022-10-22T06:58:52.773Z,13.32
2022-10-22T07:01:22.736Z,13.34
2022-10-22T07:06:41.809Z,13.35
2022-10-22T07:09:08.239Z,13.37
2022-10-22T07:11:41.270Z,13.39
2022-10-22T07:14:07.968Z,13.45
2022-10-22T07:16:34.604Z,13.47
2022-10-22T07:19:03.118Z,13.52
2022-10-22T07:21:30.423Z,13.57
2022-10-22T07:23:56.984Z,13.51
2022-10-22T07:26:28.096Z,13.57
2022-10-22T07:28:54.521Z,13.62
2022-10-22T07:31:20.801Z,13.65
2022-10-22T07:33:47.136Z,13.76
2022-10-22T07:36:17.648Z,13.85
2022-10-22T07:38:45.684Z,13.94
2022-10-22T07:41:13.093Z,13.96
2022-10-22T07:43:39.514Z,14.00
2022-10-22T07:46:06.705Z,14.07
2022-10-22T07:48:32.959Z,14.23
2022-10-22T07:50:59.272Z,14.25
2022-10-22T07:53:25.581Z,14.33
2022-10-22T07:55:52.140Z,14.42
2022-10-22T07:58:19.583Z,14.44
2022-10-22T08:00:46.162Z,14.52
2022-10-22T08:03:13.316Z,14.60
2022-10-22T08:05:40.555Z,14.64
2022-10-22T08:08:06.932Z,14.72
2022-10-22T08:10:33.551Z,14.72
2022-10-22T08:12:59.843Z,14.77
2022-10-22T08:15:29.245Z,14.80
2022-10-22T08:17:55.567Z,14.85
2022-10-22T08:20:21.956Z,15.00
2022-10-22T08:22:48.408Z,15.01
2022-10-22T08:25:15.501Z,15.03
2022-10-22T08:27:42.105Z,15.12
2022-10-22T08:30:09.293Z,15.15
2022-10-22T08:32:35.601Z,15.18
2022-10-22T08:35:01.940Z,15.27
2022-10-22T08:37:28.313Z,15.38
2022-10-22T08:39:54.687Z,15.40
2022-10-22T08:42:36.227Z,15.42
2022-10-22T08:45:29.996Z,15.60
2022-10-22T08:48:19.667Z,15.66
2022-10-22T08:50:48.635Z,15.66
2022-10-22T08:54:02.577Z,15.80
2022-10-22T08:56:30.688Z,15.79
2022-10-22T08:59:06.662Z,15.99
2022-10-22T09:01:39.910Z,16.04
2022-10-22T09:04:52.770Z,16.15
2022-10-22T09:07:19.124Z,16.16
2022-10-22T09:09:49.164Z,16.32
2022-10-22T09:12:20.201Z,16.23
2022-10-22T09:14:46.939Z,16.23
2022-10-22T09:17:39.507Z,16.36
2022-10-22T09:20:23.864Z,16.41
2022-10-22T09:23:19.995Z,16.61
2022-10-22T09:25:46.869Z,16.66
2022-10-22T09:28:13.167Z,16.82
2022-10-22T09:30:40.108Z,16.64
2022-10-22T09:33:06.344Z,16.75
2022-10-22T09:35:43.483Z,16.79
2022-10-22T09:38:09.836Z,16.82
2022-10-22T09:40:56.690Z,16.81
2022-10-22T09:43:23.354Z,16.98
2022-10-22T09:45:58.066Z,17.20
2022-10-22T09:48:34.889Z,17.43
2022-10-22T09:51:17.939Z,17.66
2022-10-22T09:54:18.594Z,17.68
2022-10-22T09:56:57.964Z,17.73
2022-10-22T09:59:28.840Z,17.88
2022-10-22T10:02:13.414Z,18.03
2022-10-22T10:04:54.783Z,18.14
2022-10-22T10:07:27.149Z,18.22
2022-10-22T10:09:54.536Z,18.15
2022-10-22T10:12:29.817Z,18.18
2022-10-22T10:15:03.544Z,18.51
2022-10-22T10:17:38.728Z,18.32
2022-10-22T10:20:14.660Z,18.02
2022-10-22T10:22:59.479Z,17.83
2022-10-22T10:25:40.953Z,17.76
2022-10-22T10:28:31.311Z,17.68
2022-10-22T10:31:17.507Z,17.73
2022-10-22T10:33:59.792Z,17.84
2022-10-22T10:36:38.239Z,17.78
2022-10-22T10:39:20.036Z,17.78
2022-10-22T10:42:20.097Z,17.87
2022-10-22T10:44:59.919Z,17.98
2022-10-22T10:47:41.112Z,17.88
2022-10-22T10:50:26.433Z,17.90
2022-10-22T10:53:25.324Z,18.02
2022-10-22T10:56:02.287Z,18.49
2022-10-22T10:58:37.712Z,18.57
2022-10-22T11:01:19.808Z,18.48
2022-10-22T11:04:06.452Z,18.49
2022-10-22T11:06:37.360Z,18.50
2022-10-22T11:09:14.455Z,18.40
2022-10-22T11:11:46.763Z,18.29
2022-10-22T11:14:27.913Z,18.28
2022-10-22T11:17:03.247Z,18.42
2022-10-22T11:19:50.664Z,18.47
2022-10-22T11:22:31.977Z,18.47
2022-10-22T11:25:13.959Z,18.46
2022-10-22T11:28:01.353Z,18.50
2022-10-22T11:30:37.779Z,18.60
2022-10-22T11:33:10.668Z,18.69
2022-10-22T11:35:40.923Z,18.77
2022-10-22T11:38:11.897Z,19.00
2022-10-22T11:40:42.771Z,19.23
2022-10-22T11:43:51.299Z,19.40
2022-10-22T11:46:17.548Z,19.56
2022-10-22T11:48:43.919Z,19.90
2022-10-22T11:51:31.823Z,20.06
2022-10-22T11:54:02.310Z,20.12
2022-10-22T11:56:38.839Z,20.15
2022-10-22T11:59:28.511Z,20.31
2022-10-22T12:01:56.245Z,20.59
2022-10-22T12:04:23.485Z,20.67
2022-10-22T12:06:58.842Z,20.46
2022-10-22T12:09:30.001Z,20.41
2022-10-22T12:12:04.555Z,20.41
2022-10-22T12:14:50.572Z,20.64
2022-10-22T12:17:18.079Z,20.68
2022-10-22T12:19:51.237Z,20.53
2022-10-22T12:22:27.770Z,20.64
2022-10-22T12:25:00.688Z,20.44
2022-10-22T12:27:33.958Z,20.48
2022-10-22T12:30:01.871Z,20.25
2022-10-22T12:32:37.215Z,20.44
2022-10-22T12:35:06.845Z,20.33
2022-10-22T12:37:36.167Z,20.15
2022-10-22T12:40:15.755Z,19.97
2022-10-22T12:42:48.185Z,20.15
2022-10-22T12:45:14.585Z,20.14
2022-10-22T12:47:45.929Z,20.07
2022-10-22T12:50:20.940Z,20.09
2022-10-22T12:52:48.255Z,20.11
2022-10-22T12:55:17.723Z,19.99
2022-10-22T12:57:47.161Z,19.91
2022-10-22T13:00:32.141Z,19.80
2022-10-22T13:03:02.640Z,19.66
2022-10-22T13:05:38.891Z,19.65
2022-10-22T13:08:17.896Z,19.72
2022-10-22T13:10:51.326Z,19.78
2022-10-22T13:13:43.099Z,19.68
2022-10-22T13:16:24.429Z,19.64
2022-10-22T13:18:52.772Z,19.55
2022-10-22T13:21:48.483Z,19.65
2022-10-22T13:24:24.078Z,19.73
2022-10-22T13:26:53.672Z,19.66
2022-10-22T13:29:22.513Z,19.63
2022-10-22T13:31:53.705Z,19.54
2022-10-22T13:34:23.745Z,19.52
2022-10-22T13:36:50.581Z,19.44
2022-10-22T13:39:19.278Z,19.41
2022-10-22T13:41:45.920Z,19.53
2022-10-22T13:44:12.260Z,19.49
2022-10-22T13:46:42.607Z,19.45
2022-10-22T13:49:17.990Z,19.32
2022-10-22T13:51:44.852Z,19.33
2022-10-22T13:54:19.335Z,19.32
2022-10-22T13:56:45.737Z,19.25
2022-10-22T13:59:12.787Z,19.25
2022-10-22T14:01:39.207Z,19.30
2022-10-22T14:04:08.345Z,19.37
2022-10-22T14:09:13.304Z,19.26
2022-10-22T14:11:39.646Z,19.21
2022-10-22T14:14:08.744Z,19.13
2022-10-22T14:16:37.456Z,19.13
2022-10-22T14:19:06.837Z,19.09
2022-10-22T14:21:37.298Z,19.05
2022-10-22T14:24:06.091Z,19.03
2022-10-22T14:26:35.008Z,19.05
2022-10-22T14:29:09.141Z,19.08
2022-10-22T14:31:37.114Z,19.06
2022-10-22T14:34:03.490Z,19.05
2022-10-22T14:36:29.795Z,19.03
2022-10-22T14:38:56.090Z,19.06
2022-10-22T14:41:24.988Z,19.06
2022-10-22T14:43:52.256Z,19.04
2022-10-22T14:46:19.332Z,19.10
2022-10-22T14:48:45.685Z,19.09
2022-10-22T14:51:17.316Z,19.14
2022-10-22T14:53:43.788Z,19.16
2022-10-22T14:56:16.362Z,19.20
2022-10-22T14:58:42.780Z,19.10
2022-10-22T15:01:09.332Z,19.06
2022-10-22T15:03:36.379Z,19.07
2022-10-22T15:06:03.535Z,19.07
2022-10-22T15:08:30.159Z,19.05
2022-10-22T15:11:12.407Z,19.01
2022-10-22T15:13:41.148Z,18.87
2022-10-22T15:16:09.455Z,18.84
2022-10-22T15:18:36.182Z,18.82
2022-10-22T15:21:06.004Z,18.83
2022-10-22T15:23:32.438Z,18.80
2022-10-22T15:25:58.907Z,18.75
2022-10-22T15:28:25.913Z,18.66
2022-10-22T15:30:54.336Z,18.63
2022-10-22T15:33:20.701Z,18.58
2022-10-22T15:35:47.071Z,18.52
2022-10-22T15:38:13.362Z,18.42
2022-10-22T15:40:39.664Z,18.35
2022-10-22T15:43:05.956Z,18.32
2022-10-22T15:45:32.248Z,18.26
2022-10-22T15:47:58.634Z,18.25
2022-10-22T15:50:24.936Z,18.15
2022-10-22T15:52:51.349Z,18.07
2022-10-22T15:55:18.719Z,18.04
2022-10-22T15:57:45.265Z,17.96
2022-10-22T16:00:12.804Z,17.90
2022-10-22T16:02:39.535Z,17.74
2022-10-22T16:05:06.346Z,17.61
2022-10-22T16:07:32.648Z,17.48
2022-10-22T16:10:00.284Z,17.51
2022-10-22T16:12:26.581Z,17.51
2022-10-22T16:14:52.869Z,17.47
2022-10-22T16:17:19.242Z,17.42
2022-10-22T16:19:45.548Z,17.34
2022-10-22T16:22:13.675Z,17.28
2022-10-22T16:24:43.017Z,17.20
2022-10-22T16:27:10.131Z,17.11
2022-10-22T16:29:40.009Z,17.03
2022-10-22T16:32:06.734Z,16.93
2022-10-22T16:34:33.205Z,16.79
2022-10-22T16:36:59.586Z,16.73
2022-10-22T16:39:25.960Z,16.75
2022-10-22T16:41:52.269Z,16.74
2022-10-22T16:44:18.624Z,16.71
2022-10-22T16:46:44.925Z,16.70
2022-10-22T16:49:11.524Z,16.63
2022-10-22T16:51:37.823Z,16.61
2022-10-22T16:54:06.850Z,16.56
2022-10-22T16:56:36.451Z,16.50
2022-10-22T16:59:03.295Z,16.51
2022-10-22T17:01:29.831Z,16.51
2022-10-22T17:03:59.299Z,16.47
2022-10-22T17:06:26.170Z,16.38
2022-10-22T17:08:52.673Z,16.32
2022-10-22T17:11:22.474Z,16.21
2022-10-22T17:13:52.437Z,16.16
2022-10-22T17:16:21.185Z,16.07
2022-10-22T17:18:48.086Z,16.06
2022-10-22T17:21:15.662Z,15.90
2022-10-22T17:23:42.658Z,15.87
2022-10-22T17:26:15.491Z,15.86
2022-10-22T17:28:41.854Z,15.80
2022-10-22T17:31:10.659Z,15.66
2022-10-22T17:33:37.571Z,15.63
2022-10-22T17:36:09.000Z,15.56
2022-10-22T17:38:35.514Z,15.43
2022-10-22T17:41:04.428Z,15.37
2022-10-22T17:43:34.817Z,15.30
2022-10-22T17:46:08.897Z,15.30
2022-10-22T17:48:35.249Z,15.26
2022-10-22T17:51:08.605Z,15.17
2022-10-22T17:53:35.664Z,15.12
2022-10-22T17:56:03.786Z,15.06
2022-10-22T17:58:30.756Z,14.91
2022-10-22T18:00:58.190Z,14.85
2022-10-22T18:03:25.127Z,14.75
2022-10-22T18:05:51.700Z,14.69
2022-10-22T18:08:18.092Z,14.72
2022-10-22T18:10:44.424Z,14.65
2022-10-22T18:13:10.968Z,14.64
2022-10-22T18:15:37.392Z,14.56
2022-10-22T18:18:04.270Z,14.57
2022-10-22T18:20:30.843Z,14.56
2022-10-22T18:22:57.498Z,14.58
2022-10-22T18:25:23.918Z,14.50
2022-10-22T18:27:50.333Z,14.53
2022-10-22T18:30:16.661Z,14.51
2022-10-22T18:32:42.986Z,14.47
2022-10-22T18:35:09.311Z,14.41
2022-10-22T18:37:36.351Z,14.35
2022-10-22T18:40:03.449Z,14.36
2022-10-22T18:42:32.815Z,14.28
2022-10-22T18:45:00.890Z,14.26
2022-10-22T18:47:27.196Z,14.17
2022-10-22T18:49:53.473Z,14.18
2022-10-22T18:52:19.792Z,14.12
2022-10-22T18:54:46.149Z,14.10
2022-10-22T18:57:12.471Z,14.10
2022-10-22T18:59:38.785Z,14.12
2022-10-22T19:02:05.177Z,14.00
2022-10-22T19:04:36.549Z,13.99
2022-10-22T19:07:04.411Z,13.94
2022-10-22T19:09:31.213Z,13.85
2022-10-22T19:11:57.637Z,13.78
2022-10-22T19:14:23.998Z,13.72
2022-10-22T19:16:50.416Z,13.72
2022-10-22T19:19:19.604Z,13.54
2022-10-22T19:21:46.828Z,13.45
2022-10-22T19:24:15.215Z,13.38
2022-10-22T19:26:42.240Z,13.38
2022-10-22T19:29:10.780Z,13.39
2022-10-22T19:31:37.486Z,13.36
2022-10-22T19:34:03.801Z,13.33
2022-10-22T19:36:31.152Z,13.31
2022-10-22T19:38:58.915Z,13.20
2022-10-22T19:41:27.970Z,13.16
2022-10-22T19:43:55.478Z,13.19
2022-10-22T19:46:22.566Z,13.14
2022-10-22T19:48:51.077Z,13.14
2022-10-22T19:51:20.519Z,13.13
2022-10-22T19:53:48.045Z,13.07
2022-10-22T19:56:20.412Z,13.10
2022-10-22T19:58:46.994Z,13.06
2022-10-22T20:01:15.875Z,13.07
2022-10-22T20:03:42.456Z,13.04
2022-10-22T20:06:10.932Z,12.96
2022-10-22T20:08:38.451Z,12.87
2022-10-22T20:11:07.017Z,12.92
2022-10-22T20:13:34.616Z,12.97
2022-10-22T20:16:01.084Z,12.97
2022-10-22T20:18:27.429Z,12.98
2022-10-22T20:20:53.718Z,12.90
2022-10-22T20:23:19.984Z,12.89
2022-10-22T20:25:47.144Z,12.83
2022-10-22T20:28:14.419Z,12.77
2022-10-22T20:30:45.070Z,12.65
2022-10-22T20:33:12.811Z,12.66
2022-10-22T20:35:39.549Z,12.68
2022-10-22T20:38:07.387Z,12.60
2022-10-22T20:40:33.839Z,12.61
2022-10-22T20:43:00.867Z,12.61
2022-10-22T20:45:27.878Z,12.63
2022-10-22T20:48:01.957Z,12.53
2022-10-22T20:50:31.886Z,12.48
2022-10-22T20:52:59.087Z,12.56
2022-10-22T20:55:25.908Z,12.62
2022-10-22T20:57:52.232Z,12.62
2022-10-22T21:00:18.564Z,12.55
2022-10-22T21:02:44.880Z,12.47
2022-10-22T21:05:11.260Z,12.46
2022-10-22T21:07:37.537Z,12.42
2022-10-22T21:10:04.281Z,12.41
2022-10-22T21:12:30.553Z,12.34
2022-10-22T21:14:56.853Z,12.36
2022-10-22T21:17:23.197Z,12.26
2022-10-22T21:19:49.479Z,12.29
2022-10-22T21:22:15.758Z,12.21
2022-10-22T21:24:42.127Z,12.19
2022-10-22T21:27:08.548Z,12.20
2022-10-22T21:29:34.847Z,12.16
2022-10-22T21:32:01.150Z,12.08
2022-10-22T21:34:27.545Z,12.09
2022-10-22T21:36:53.895Z,12.09
2022-10-22T21:39:20.204Z,12.09
2022-10-22T21:41:46.487Z,12.06
2022-10-22T21:44:12.766Z,11.99
2022-10-22T21:46:39.047Z,12.05
2022-10-22T21:49:05.379Z,11.90
2022-10-22T21:51:33.872Z,11.93
2022-10-22T21:54:00.590Z,11.96
2022-10-22T21:56:30.223Z,11.94
2022-10-22T21:58:56.531Z,11.98
2022-10-22T22:01:22.993Z,11.84
2022-10-22T22:03:50.125Z,11.81
2022-10-22T22:06:21.300Z,11.69
2022-10-22T22:08:49.049Z,11.64
2022-10-22T22:11:18.488Z,11.69
2022-10-22T22:13:45.302Z,11.63
2022-10-22T22:16:14.756Z,11.62
2022-10-22T22:18:42.172Z,11.63
2022-10-22T22:21:14.320Z,11.64
2022-10-22T22:23:43.261Z,11.59
2022-10-22T22:26:10.626Z,11.58
2022-10-22T22:28:37.388Z,11.54
2022-10-22T22:31:13.212Z,11.49
2022-10-22T22:33:39.581Z,11.53
2022-10-22T22:36:06.217Z,11.58
2022-10-22T22:38:32.529Z,11.61
2022-10-22T22:41:00.344Z,11.58
2022-10-22T22:43:26.747Z,11.46
2022-10-22T22:46:06.638Z,11.46
2022-10-22T22:48:33.169Z,11.42
2022-10-22T22:51:00.011Z,11.48
2022-10-22T22:53:28.114Z,11.31
2022-10-22T22:56:06.166Z,11.38
2022-10-22T22:58:32.873Z,11.42
2022-10-22T23:01:21.327Z,11.36
2022-10-22T23:03:52.524Z,11.28
2022-10-22T23:06:18.852Z,11.21
2022-10-22T23:08:49.401Z,11.16
2022-10-22T23:11:16.338Z,11.19
2022-10-22T23:13:43.068Z,11.19
2022-10-22T23:16:18.223Z,11.20
2022-10-22T23:18:45.704Z,11.11
2022-10-22T23:21:15.028Z,11.08
2022-10-22T23:23:45.991Z,10.97
2022-10-22T23:26:13.980Z,10.97
2022-10-22T23:28:40.556Z,11.01
2022-10-22T23:31:07.655Z,10.91
2022-10-22T23:33:34.876Z,10.87
2022-10-22T23:36:02.137Z,10.89
2022-10-22T23:38:28.561Z,10.79
2022-10-22T23:40:56.448Z,10.87
2022-10-22T23:43:26.341Z,10.87
2022-10-22T23:45:52.992Z,10.72
2022-10-22T23:48:20.078Z,10.73
2022-10-22T23:50:46.954Z,10.76
2022-10-22T23:53:13.866Z,10.77
2022-10-22T23:55:41.990Z,10.71
2022-10-22T23:58:09.172Z,10.80
